Terminal Aerodrome Forecast
Issued by NWS St Louis, MO

Home | Current Version | Previous Version | Text Only | Print | Product List | Glossary On
Versions: 1 2 3 4 5 6 7 8 9 10 11 12 13 14 15 16 17 18 19 20 21 22 23
000
FTUS43 KLSX 160300 AAA
TAFSTL
TAF AMD
KSTL 160301Z 1603/1706 10006KT P6SM SCT035 BKN100
     FM160900 VRB03KT 5SM BR SCT025 BKN040
      TEMPO 1609/1613 BKN025
     FM161500 VRB04KT P6SM SCT025 BKN040=

USA.gov is the U.S. government's official web portal to all federal, state and local government web resources and services.